createdAt,value
2018-10-17T00:00:26.711Z,14.47
2018-10-17T00:02:54.068Z,14.47
2018-10-17T00:05:21.419Z,13.27
2018-10-17T00:07:48.792Z,14.40
2018-10-17T00:10:16.154Z,13.30
2018-10-17T00:12:43.501Z,14.63
2018-10-17T00:15:11.038Z,14.80
2018-10-17T00:17:38.408Z,13.87
2018-10-17T00:20:06.685Z,13.40
2018-10-17T00:22:34.063Z,14.40
2018-10-17T00:25:01.480Z,15.17
2018-10-17T00:27:28.777Z,14.47
2018-10-17T00:29:56.288Z,13.70
2018-10-17T00:32:23.642Z,13.70
2018-10-17T00:34:51.117Z,13.97
2018-10-17T00:37:18.496Z,14.63
2018-10-17T00:39:46.044Z,15.60
2018-10-17T00:42:13.391Z,14.57
2018-10-17T00:44:40.904Z,14.57
2018-10-17T00:47:08.345Z,13.03
2018-10-17T00:49:35.688Z,14.07
2018-10-17T00:52:03.144Z,13.80
2018-10-17T00:54:30.459Z,14.23
2018-10-17T00:56:57.796Z,13.13
2018-10-17T00:59:25.199Z,13.30
2018-10-17T01:01:52.659Z,14.40
2018-10-17T01:04:20.039Z,13.90
2018-10-17T01:06:47.425Z,14.33
2018-10-17T01:09:15.490Z,13.50
2018-10-17T01:11:43.088Z,13.87
2018-10-17T01:14:10.613Z,14.47
2018-10-17T01:16:38.000Z,13.60
2018-10-17T01:19:05.682Z,13.10
2018-10-17T01:21:33.520Z,14.40
2018-10-17T01:24:01.256Z,13.97
2018-10-17T01:26:28.614Z,13.67
2018-10-17T01:28:56.033Z,13.93
2018-10-17T01:31:23.416Z,13.60
2018-10-17T01:33:50.982Z,13.20
2018-10-17T01:36:18.353Z,13.93
2018-10-17T01:38:45.780Z,13.00
2018-10-17T01:41:13.362Z,12.47
2018-10-17T01:43:40.627Z,13.50
2018-10-17T01:46:07.961Z,12.80
2018-10-17T01:48:35.308Z,14.13
2018-10-17T01:51:03.467Z,14.40
2018-10-17T01:53:30.880Z,14.40
2018-10-17T01:55:58.547Z,12.67
2018-10-17T01:58:25.982Z,13.50
2018-10-17T02:00:53.432Z,13.60
2018-10-17T02:03:20.860Z,13.00
2018-10-17T02:05:48.255Z,13.53
2018-10-17T02:08:15.582Z,13.03
2018-10-17T02:10:43.015Z,13.17
2018-10-17T02:13:10.509Z,13.33
2018-10-17T02:15:37.832Z,12.23
2018-10-17T02:18:05.160Z,13.07
2018-10-17T02:20:32.642Z,12.67
2018-10-17T02:23:00.002Z,14.20
2018-10-17T02:25:27.423Z,12.87
2018-10-17T02:27:54.909Z,14.33
2018-10-17T02:30:22.310Z,13.50
2018-10-17T02:32:49.663Z,13.67
2018-10-17T02:35:18.531Z,13.70
2018-10-17T02:37:46.317Z,13.27
2018-10-17T02:40:13.876Z,14.53
2018-10-17T02:42:41.381Z,13.40
2018-10-17T02:45:09.527Z,12.83
2018-10-17T02:47:37.166Z,14.03
2018-10-17T02:50:09.857Z,13.73
2018-10-17T02:52:39.692Z,13.13
2018-10-17T02:55:07.506Z,14.43
2018-10-17T02:57:35.178Z,12.63
2018-10-17T03:00:02.920Z,12.70
2018-10-17T03:02:30.353Z,13.03
2018-10-17T03:04:57.720Z,13.70
2018-10-17T03:07:25.084Z,14.13
2018-10-17T03:09:52.511Z,13.80
2018-10-17T03:12:19.875Z,14.33
2018-10-17T03:14:47.612Z,12.80
2018-10-17T03:17:15.131Z,13.20
2018-10-17T03:19:43.253Z,14.83
2018-10-17T03:22:10.588Z,13.30
2018-10-17T03:24:38.101Z,14.20
2018-10-17T03:27:05.486Z,15.20
2018-10-17T03:29:32.845Z,13.73
2018-10-17T03:32:00.274Z,14.00
2018-10-17T03:34:27.663Z,13.53
2018-10-17T03:36:55.041Z,15.37
2018-10-17T03:39:22.366Z,14.33
2018-10-17T03:41:49.921Z,14.27
2018-10-17T03:44:17.234Z,15.13
2018-10-17T03:46:44.569Z,15.00
2018-10-17T03:49:12.019Z,13.73
2018-10-17T03:51:39.231Z,14.10
2018-10-17T03:54:06.591Z,14.70
2018-10-17T03:56:34.018Z,14.50
2018-10-17T03:59:02.089Z,14.40
2018-10-17T04:01:29.343Z,14.53
2018-10-17T04:03:56.783Z,14.23
2018-10-17T04:06:24.126Z,14.90
2018-10-17T04:08:51.667Z,14.87
2018-10-17T04:11:19.016Z,15.13
2018-10-17T04:13:46.401Z,14.20
2018-10-17T04:16:13.737Z,13.70
2018-10-17T04:18:41.090Z,15.30
2018-10-17T04:21:08.493Z,15.63
2018-10-17T04:23:35.887Z,15.20
2018-10-17T04:26:03.207Z,13.13
2018-10-17T04:28:30.511Z,14.50
2018-10-17T04:30:57.811Z,13.33
2018-10-17T04:33:25.160Z,15.77
2018-10-17T04:35:52.581Z,15.33
2018-10-17T04:38:19.953Z,14.67
2018-10-17T04:40:47.322Z,14.50
2018-10-17T04:43:14.708Z,15.40
2018-10-17T04:45:41.967Z,15.80
2018-10-17T04:48:09.505Z,14.30
2018-10-17T04:50:36.801Z,16.47
2018-10-17T04:53:04.155Z,14.70
2018-10-17T04:55:31.490Z,15.30
2018-10-17T04:57:58.928Z,15.57
2018-10-17T05:00:26.306Z,16.40
2018-10-17T05:02:53.742Z,15.63
2018-10-17T05:05:21.086Z,16.30
2018-10-17T05:07:48.443Z,15.30
2018-10-17T05:10:15.800Z,16.27
2018-10-17T05:12:43.137Z,15.17
2018-10-17T05:15:10.554Z,15.47
2018-10-17T05:17:37.881Z,13.77
2018-10-17T05:20:06.613Z,13.17
2018-10-17T05:22:33.939Z,12.47
2018-10-17T05:25:01.476Z,13.63
2018-10-17T05:27:28.827Z,14.60
2018-10-17T05:29:56.473Z,13.67
2018-10-17T05:32:23.819Z,14.97
2018-10-17T05:34:51.290Z,15.80
2018-10-17T05:37:18.937Z,16.00
2018-10-17T05:39:46.171Z,15.87
2018-10-17T05:42:13.529Z,14.67
2018-10-17T05:44:40.942Z,15.27
2018-10-17T05:47:11.459Z,15.27
2018-10-17T05:49:38.808Z,16.03
2018-10-17T05:52:07.345Z,16.57
2018-10-17T05:54:34.675Z,14.07
2018-10-17T05:57:02.072Z,15.33
2018-10-17T05:59:29.899Z,14.23
2018-10-17T06:01:58.469Z,14.17
2018-10-17T06:04:25.770Z,14.83
2018-10-17T06:06:53.207Z,14.73
2018-10-17T06:09:20.516Z,15.97
2018-10-17T06:11:48.002Z,15.40
2018-10-17T06:14:16.075Z,14.87
2018-10-17T06:16:44.365Z,14.67
2018-10-17T06:19:12.710Z,14.80
2018-10-17T06:21:40.199Z,15.20
2018-10-17T06:24:07.836Z,15.20
2018-10-17T06:26:35.233Z,15.73
2018-10-17T06:29:02.654Z,15.47
2018-10-17T06:31:30.053Z,13.80
2018-10-17T06:33:57.572Z,15.50
2018-10-17T06:36:24.892Z,14.67
2018-10-17T06:38:52.318Z,15.60
2018-10-17T06:41:19.683Z,15.50
2018-10-17T06:43:47.211Z,14.77
2018-10-17T06:46:14.404Z,14.97
2018-10-17T06:48:41.725Z,14.60
2018-10-17T06:51:09.124Z,14.63
2018-10-17T06:53:36.425Z,15.27
2018-10-17T06:56:03.781Z,15.93
2018-10-17T06:58:31.126Z,14.90
2018-10-17T07:00:58.602Z,14.67
2018-10-17T07:03:26.025Z,14.37
2018-10-17T07:05:53.360Z,14.87
2018-10-17T07:08:20.763Z,13.80
2018-10-17T07:10:48.140Z,14.03
2018-10-17T07:13:15.845Z,14.33
2018-10-17T07:15:43.597Z,16.83
2018-10-17T07:18:10.818Z,15.90
2018-10-17T07:20:38.159Z,14.97
2018-10-17T07:23:05.575Z,14.30
2018-10-17T07:25:33.095Z,16.20
2018-10-17T07:28:00.475Z,15.37
2018-10-17T07:30:28.400Z,15.37
2018-10-17T07:32:55.820Z,15.43
2018-10-17T07:35:23.133Z,16.47
2018-10-17T07:37:50.559Z,16.50
2018-10-17T07:40:17.901Z,17.20
2018-10-17T07:42:45.380Z,15.87
2018-10-17T07:45:12.714Z,16.03
2018-10-17T07:47:40.044Z,14.40
2018-10-17T07:50:08.344Z,15.90
2018-10-17T07:52:35.646Z,15.23
2018-10-17T07:55:03.008Z,16.30
2018-10-17T07:57:30.391Z,15.03
2018-10-17T07:59:57.748Z,14.97
2018-10-17T08:02:25.096Z,15.93
2018-10-17T08:04:52.466Z,15.83
2018-10-17T08:07:19.790Z,15.60
2018-10-17T08:09:47.366Z,13.60
2018-10-17T08:12:14.760Z,15.07
2018-10-17T08:14:42.588Z,14.87
2018-10-17T08:17:10.551Z,15.43
2018-10-17T08:19:37.832Z,14.80
2018-10-17T08:22:05.292Z,15.60
2018-10-17T08:24:32.649Z,14.93
2018-10-17T08:27:00.010Z,14.83
2018-10-17T08:29:27.325Z,29.17
2018-10-17T08:31:54.709Z,14.80
2018-10-17T08:34:22.062Z,14.90
2018-10-17T08:36:49.668Z,14.20
2018-10-17T08:39:16.782Z,12.50
2018-10-17T08:41:44.206Z,12.60
2018-10-17T08:44:11.548Z,12.80
2018-10-17T08:46:38.923Z,13.30
2018-10-17T08:49:06.312Z,12.03
2018-10-17T08:51:33.699Z,15.17
2018-10-17T08:54:01.043Z,29.00
2018-10-17T08:56:28.355Z,15.57
2018-10-17T08:58:55.684Z,11.97
2018-10-17T09:01:23.025Z,13.50
2018-10-17T09:03:50.376Z,12.90
2018-10-17T09:06:17.967Z,13.80
2018-10-17T09:08:45.217Z,12.67
2018-10-17T09:11:12.600Z,12.37
2018-10-17T09:13:40.025Z,12.07
2018-10-17T09:16:07.566Z,13.30
2018-10-17T09:18:34.863Z,12.00
2018-10-17T09:21:02.904Z,11.37
2018-10-17T09:23:29.784Z,11.07
2018-10-17T09:25:57.090Z,11.30
2018-10-17T09:28:24.498Z,9.97
2018-10-17T09:30:51.822Z,11.10
2018-10-17T09:33:19.153Z,10.57
2018-10-17T09:35:46.591Z,10.07
2018-10-17T09:38:13.945Z,10.10
2018-10-17T09:40:41.610Z,10.27
2018-10-17T09:43:08.937Z,8.90
2018-10-17T09:45:36.233Z,9.23
2018-10-17T09:48:03.697Z,9.17
2018-10-17T09:50:31.047Z,9.20
2018-10-17T09:52:58.369Z,9.77
2018-10-17T09:55:25.683Z,9.87
2018-10-17T09:57:53.040Z,8.40
2018-10-17T10:00:25.722Z,7.73
2018-10-17T10:02:53.135Z,10.77
2018-10-17T10:05:20.784Z,8.63
2018-10-17T10:07:48.094Z,8.23
2018-10-17T10:10:16.129Z,8.80
2018-10-17T10:12:44.036Z,8.43
2018-10-17T10:15:11.376Z,9.17
2018-10-17T10:17:38.861Z,8.90
2018-10-17T10:20:06.170Z,8.50
2018-10-17T10:22:33.600Z,11.03
2018-10-17T10:25:01.031Z,10.07
2018-10-17T10:27:28.696Z,8.93
2018-10-17T10:29:56.129Z,9.53
2018-10-17T10:32:23.701Z,9.37
2018-10-17T10:34:51.031Z,9.80
2018-10-17T10:37:18.385Z,10.67
2018-10-17T10:39:45.761Z,10.27
2018-10-17T10:42:13.171Z,10.20
2018-10-17T10:44:40.465Z,10.97
2018-10-17T10:47:07.822Z,9.37
2018-10-17T10:49:35.141Z,9.57
2018-10-17T10:52:02.539Z,8.90
2018-10-17T10:54:29.860Z,10.07
2018-10-17T10:56:57.344Z,9.97
2018-10-17T10:59:24.769Z,10.43
2018-10-17T11:01:52.223Z,10.00
2018-10-17T11:04:19.591Z,9.53
2018-10-17T11:06:46.976Z,10.03
2018-10-17T11:09:14.306Z,11.23
2018-10-17T11:11:41.675Z,10.63
2018-10-17T11:14:09.174Z,11.40
2018-10-17T11:16:36.976Z,9.53
2018-10-17T11:19:04.323Z,11.20
2018-10-17T11:21:32.024Z,11.50
2018-10-17T11:23:59.385Z,11.00
2018-10-17T11:26:26.690Z,10.53
2018-10-17T11:28:54.078Z,11.70
2018-10-17T11:31:21.422Z,12.43
2018-10-17T11:33:48.827Z,12.73
2018-10-17T11:36:16.183Z,12.30
2018-10-17T11:38:43.520Z,11.83
2018-10-17T11:41:11.192Z,11.27
2018-10-17T11:43:38.415Z,12.00
2018-10-17T11:46:05.792Z,12.83
2018-10-17T11:48:33.124Z,11.47
2018-10-17T11:51:00.531Z,13.13
2018-10-17T11:53:27.970Z,12.93
2018-10-17T11:55:55.262Z,11.37
2018-10-17T11:58:22.627Z,12.47
2018-10-17T12:00:49.984Z,11.17
2018-10-17T12:03:17.365Z,11.43
2018-10-17T12:05:44.853Z,12.80
2018-10-17T12:08:11.961Z,11.30
2018-10-17T12:10:39.288Z,11.90
2018-10-17T12:13:06.717Z,11.13
2018-10-17T12:15:34.146Z,11.70
2018-10-17T12:18:01.563Z,11.60
2018-10-17T12:20:28.904Z,12.57
2018-10-17T12:22:56.233Z,12.10
2018-10-17T12:25:23.539Z,11.03
2018-10-17T12:27:50.941Z,9.47
2018-10-17T12:30:18.230Z,11.10
2018-10-17T12:32:45.574Z,10.50
2018-10-17T12:35:13.883Z,11.47
2018-10-17T12:37:41.158Z,10.80
2018-10-17T12:40:09.377Z,11.00
2018-10-17T12:42:36.663Z,10.13
2018-10-17T12:45:04.259Z,10.77
2018-10-17T12:47:31.578Z,11.47
2018-10-17T12:49:59.035Z,10.97
2018-10-17T12:52:26.388Z,11.40
2018-10-17T12:54:53.710Z,10.93
2018-10-17T12:57:21.092Z,10.57
2018-10-17T12:59:48.398Z,10.60
2018-10-17T13:02:15.734Z,10.20
2018-10-17T13:04:43.096Z,10.80
2018-10-17T13:07:10.506Z,11.10
2018-10-17T13:09:37.874Z,11.00
2018-10-17T13:12:05.222Z,10.20
2018-10-17T13:14:32.571Z,10.37
2018-10-17T13:16:59.984Z,9.50
2018-10-17T13:19:27.342Z,9.90
2018-10-17T13:21:54.644Z,10.10
2018-10-17T13:24:21.940Z,9.63
2018-10-17T13:26:49.313Z,9.33
2018-10-17T13:29:16.784Z,10.47
2018-10-17T13:31:44.022Z,10.20
2018-10-17T13:34:11.396Z,9.67
2018-10-17T13:36:38.985Z,9.83
2018-10-17T13:39:08.316Z,9.20
2018-10-17T13:41:35.954Z,9.27
2018-10-17T13:44:03.350Z,8.80
2018-10-17T13:46:30.698Z,8.70
2018-10-17T13:48:58.068Z,8.20
2018-10-17T13:51:25.332Z,8.80
2018-10-17T13:53:52.617Z,8.30
2018-10-17T13:56:19.977Z,8.97
2018-10-17T13:58:47.315Z,8.80
2018-10-17T14:01:14.751Z,8.70
2018-10-17T14:03:42.048Z,9.63
2018-10-17T14:06:09.497Z,9.70
2018-10-17T14:08:36.805Z,9.07
2018-10-17T14:11:04.120Z,9.50
2018-10-17T14:13:31.518Z,8.70
2018-10-17T14:15:58.792Z,8.20
2018-10-17T14:18:26.290Z,8.67
2018-10-17T14:20:53.650Z,8.93
2018-10-17T14:23:21.033Z,7.40
2018-10-17T14:25:48.267Z,7.87
2018-10-17T14:28:15.620Z,8.03
2018-10-17T14:30:42.964Z,8.57
2018-10-17T14:33:10.419Z,8.63
2018-10-17T14:35:37.786Z,8.00
2018-10-17T14:38:05.352Z,8.50
2018-10-17T14:40:32.635Z,8.13
2018-10-17T14:42:59.872Z,8.10
2018-10-17T14:45:27.190Z,8.40
2018-10-17T14:47:54.520Z,8.80
2018-10-17T14:50:21.832Z,8.30
2018-10-17T14:52:49.378Z,7.43
2018-10-17T14:55:16.729Z,8.40
2018-10-17T14:57:44.031Z,9.43
2018-10-17T15:00:13.214Z,8.90
2018-10-17T15:02:40.652Z,10.57
2018-10-17T15:05:08.673Z,10.03
2018-10-17T15:07:35.934Z,10.43
2018-10-17T15:10:03.402Z,10.87
2018-10-17T15:12:30.699Z,11.80
2018-10-17T15:14:58.115Z,11.20
2018-10-17T15:17:26.522Z,11.00
2018-10-17T15:19:53.847Z,11.17
2018-10-17T15:22:21.196Z,11.10
2018-10-17T15:24:48.596Z,11.17
2018-10-17T15:27:16.164Z,10.90
2018-10-17T15:29:43.407Z,10.33
2018-10-17T15:32:10.812Z,11.47
2018-10-17T15:34:38.251Z,12.00
2018-10-17T15:37:05.829Z,11.30
2018-10-17T15:39:33.032Z,11.70
2018-10-17T15:42:00.404Z,10.90
2018-10-17T15:44:27.817Z,11.70
2018-10-17T15:46:55.169Z,11.03
2018-10-17T15:49:22.530Z,12.20
2018-10-17T15:51:49.861Z,11.93
2018-10-17T15:54:17.319Z,11.87
2018-10-17T15:56:44.618Z,11.87
2018-10-17T15:59:11.941Z,12.10
2018-10-17T16:01:39.323Z,11.47
2018-10-17T16:04:06.646Z,11.17
2018-10-17T16:06:34.035Z,13.60
2018-10-17T16:09:01.768Z,12.90
2018-10-17T16:11:29.132Z,12.00
2018-10-17T16:13:56.941Z,12.47
2018-10-17T16:16:24.453Z,14.20
2018-10-17T16:18:51.867Z,13.53
2018-10-17T16:21:19.154Z,12.47
2018-10-17T16:23:46.523Z,13.80
2018-10-17T16:26:13.894Z,15.07
2018-10-17T16:28:41.621Z,14.20
2018-10-17T16:31:09.171Z,13.83
2018-10-17T16:33:36.454Z,14.00
2018-10-17T16:36:05.973Z,13.27
2018-10-17T16:38:33.339Z,15.43
2018-10-17T16:41:00.856Z,16.40
2018-10-17T16:43:28.093Z,14.87
2018-10-17T16:45:55.372Z,15.80
2018-10-17T16:48:23.010Z,17.53
2018-10-17T16:50:50.386Z,18.10
2018-10-17T16:53:17.733Z,16.73
2018-10-17T16:55:45.056Z,18.47
2018-10-17T16:58:12.490Z,18.60
2018-10-17T17:00:39.791Z,20.37
2018-10-17T17:03:07.222Z,18.30
2018-10-17T17:05:34.482Z,19.30
2018-10-17T17:08:01.874Z,18.17
2018-10-17T17:10:29.178Z,19.00
2018-10-17T17:12:56.542Z,17.50
2018-10-17T17:15:23.871Z,17.93
2018-10-17T17:17:51.187Z,17.03
2018-10-17T17:20:18.581Z,18.87
2018-10-17T17:22:46.041Z,17.90
2018-10-17T17:25:14.064Z,17.23
2018-10-17T17:27:41.730Z,17.30
2018-10-17T17:30:10.746Z,18.20
2018-10-17T17:32:38.003Z,18.13
2018-10-17T17:35:05.413Z,16.87
2018-10-17T17:37:32.774Z,18.80
2018-10-17T17:40:00.191Z,17.63
2018-10-17T17:42:27.490Z,18.83
2018-10-17T17:44:54.791Z,19.40
2018-10-17T17:47:22.186Z,17.40
2018-10-17T17:49:49.467Z,18.47
2018-10-17T17:52:16.845Z,17.77
2018-10-17T17:54:44.126Z,18.67
2018-10-17T17:57:11.523Z,17.30
2018-10-17T17:59:38.825Z,18.13
2018-10-17T18:02:06.203Z,18.33
2018-10-17T18:04:33.579Z,17.97
2018-10-17T18:07:00.959Z,18.50
2018-10-17T18:09:28.260Z,16.60
2018-10-17T18:11:55.625Z,16.97
2018-10-17T18:14:22.977Z,16.40
2018-10-17T18:16:50.205Z,17.30
2018-10-17T18:19:17.516Z,19.60
2018-10-17T18:21:44.827Z,18.50
2018-10-17T18:24:12.106Z,17.13
2018-10-17T18:26:39.405Z,19.90
2018-10-17T18:29:06.717Z,17.30
2018-10-17T18:31:34.052Z,18.83
2018-10-17T18:34:01.429Z,18.10
2018-10-17T18:36:28.758Z,18.60
2018-10-17T18:38:56.060Z,17.60
2018-10-17T18:41:23.368Z,16.93
2018-10-17T18:43:50.667Z,18.30
2018-10-17T18:46:18.107Z,17.57
2018-10-17T18:48:45.380Z,16.93
2018-10-17T18:51:12.761Z,19.83
2018-10-17T18:53:40.073Z,17.00
2018-10-17T18:56:07.628Z,18.40
2018-10-17T18:58:35.021Z,16.90
2018-10-17T19:01:02.395Z,17.37
2018-10-17T19:03:29.706Z,17.60
2018-10-17T19:05:57.075Z,18.23
2018-10-17T19:08:24.668Z,18.47
2018-10-17T19:10:51.971Z,19.30
2018-10-17T19:13:19.384Z,19.93
2018-10-17T19:15:46.887Z,19.13
2018-10-17T19:18:14.154Z,18.70
2018-10-17T19:20:41.509Z,18.00
2018-10-17T19:23:08.862Z,18.17
2018-10-17T19:25:36.203Z,17.50
2018-10-17T19:28:03.504Z,16.83
2018-10-17T19:30:30.833Z,17.33
2018-10-17T19:32:58.488Z,18.40
2018-10-17T19:35:25.759Z,17.00
2018-10-17T19:37:53.200Z,18.23
2018-10-17T19:40:20.624Z,16.33
2018-10-17T19:42:47.992Z,15.50
2018-10-17T19:45:15.493Z,16.27
2018-10-17T19:47:42.782Z,16.70
2018-10-17T19:50:10.117Z,17.37
2018-10-17T19:52:37.698Z,16.43
2018-10-17T19:55:05.651Z,15.00
2018-10-17T19:57:32.965Z,16.57
2018-10-17T20:00:00.247Z,16.53
2018-10-17T20:02:27.630Z,16.97
2018-10-17T20:04:54.932Z,16.73
2018-10-17T20:07:22.805Z,17.30
2018-10-17T20:09:50.092Z,16.40
2018-10-17T20:12:17.496Z,18.63
2018-10-17T20:14:44.811Z,18.10
2018-10-17T20:17:12.102Z,17.27
2018-10-17T20:19:39.686Z,16.83
2018-10-17T20:22:07.473Z,18.13
2018-10-17T20:24:34.788Z,17.47
2018-10-17T20:27:02.095Z,16.80
2018-10-17T20:29:29.574Z,17.07
2018-10-17T20:31:56.888Z,17.70
2018-10-17T20:34:24.428Z,17.13
2018-10-17T20:36:52.089Z,17.53
2018-10-17T20:39:19.494Z,18.03
2018-10-17T20:41:46.941Z,16.30
2018-10-17T20:44:14.388Z,17.27
2018-10-17T20:46:41.667Z,16.20
2018-10-17T20:49:09.727Z,17.93
2018-10-17T20:51:37.140Z,18.43
2018-10-17T20:54:04.742Z,16.23
2018-10-17T20:56:32.106Z,17.10
2018-10-17T20:58:59.451Z,17.70
2018-10-17T21:01:26.864Z,16.50
2018-10-17T21:03:54.250Z,17.93
2018-10-17T21:06:21.619Z,18.03
2018-10-17T21:08:49.032Z,17.73
2018-10-17T21:11:16.337Z,18.20
2018-10-17T21:13:43.658Z,16.90
2018-10-17T21:16:11.016Z,15.93
2018-10-17T21:18:38.495Z,17.73
2018-10-17T21:21:05.839Z,16.63
2018-10-17T21:23:33.161Z,15.20
2018-10-17T21:26:00.481Z,15.73
2018-10-17T21:28:27.775Z,16.37
2018-10-17T21:30:55.182Z,17.23
2018-10-17T21:33:22.544Z,16.43
2018-10-17T21:35:49.858Z,16.30
2018-10-17T21:38:17.365Z,14.97
2018-10-17T21:40:44.651Z,15.43
2018-10-17T21:43:12.058Z,15.23
2018-10-17T21:45:39.434Z,15.73
2018-10-17T21:48:06.864Z,15.00
2018-10-17T21:50:34.314Z,14.77
2018-10-17T21:53:01.703Z,14.03
2018-10-17T21:55:29.068Z,15.70
2018-10-17T21:57:56.415Z,16.67
2018-10-17T22:00:23.796Z,14.87
2018-10-17T22:02:51.143Z,16.00
2018-10-17T22:05:18.463Z,15.03
2018-10-17T22:07:45.813Z,15.50
2018-10-17T22:10:13.154Z,14.17
2018-10-17T22:12:40.654Z,15.43
2018-10-17T22:15:08.839Z,15.77
2018-10-17T22:17:36.154Z,15.40
2018-10-17T22:20:03.527Z,15.50
2018-10-17T22:22:30.837Z,15.50
2018-10-17T22:24:58.405Z,14.70
2018-10-17T22:27:25.769Z,15.30
2018-10-17T22:29:53.265Z,14.67
2018-10-17T22:32:20.589Z,16.00
2018-10-17T22:34:47.918Z,14.80
2018-10-17T22:37:15.245Z,15.33
2018-10-17T22:39:42.610Z,15.17
2018-10-17T22:42:09.967Z,14.83
2018-10-17T22:44:37.604Z,15.60
2018-10-17T22:47:05.431Z,14.43
2018-10-17T22:49:32.715Z,15.60
2018-10-17T22:52:00.056Z,15.20
2018-10-17T22:54:27.322Z,15.03
2018-10-17T22:56:54.607Z,15.33
2018-10-17T22:59:21.925Z,15.47
2018-10-17T23:01:49.338Z,15.40
2018-10-17T23:04:16.631Z,14.00
2018-10-17T23:06:43.909Z,15.80
2018-10-17T23:09:13.607Z,14.30
2018-10-17T23:11:42.035Z,16.83
2018-10-17T23:14:09.997Z,14.17
2018-10-17T23:16:37.376Z,14.57
2018-10-17T23:19:05.181Z,14.20
2018-10-17T23:21:32.452Z,16.10
2018-10-17T23:23:59.817Z,14.90
2018-10-17T23:26:27.093Z,16.20
2018-10-17T23:28:54.390Z,15.10
2018-10-17T23:31:24.191Z,16.30
2018-10-17T23:33:51.646Z,15.70
2018-10-17T23:36:18.915Z,16.83
2018-10-17T23:38:46.260Z,14.83
2018-10-17T23:41:13.544Z,16.27
2018-10-17T23:43:40.847Z,16.47
2018-10-17T23:46:08.113Z,15.83
2018-10-17T23:48:35.444Z,15.87
2018-10-17T23:51:02.781Z,15.87
2018-10-17T23:53:30.039Z,15.43
2018-10-17T23:55:57.337Z,15.37
2018-10-17T23:58:24.692Z,16.40
